sensor_id;sensor_type;location;lat;lon;timestamp;pressure;altitude;pressure_sealevel;temperature;humidity
74798;BME280;63326;45.088;7.658;2024-03-08T00:00:39;98568.78;;;3.49;100.00
74798;BME280;63326;45.088;7.658;2024-03-08T00:03:15;98567.69;;;3.52;100.00
74798;BME280;63326;45.088;7.658;2024-03-08T00:05:43;98608.66;;;3.77;100.00
74798;BME280;63326;45.088;7.658;2024-03-08T00:08:12;98565.34;;;3.39;100.00
74798;BME280;63326;45.088;7.658;2024-03-08T00:10:38;98561.16;;;3.37;100.00
74798;BME280;63326;45.088;7.658;2024-03-08T00:13:06;98616.16;;;3.91;100.00
74798;BME280;63326;45.088;7.658;2024-03-08T00:15:34;98613.50;;;3.91;100.00
74798;BME280;63326;45.088;7.658;2024-03-08T00:18:05;98568.00;;;3.39;100.00
74798;BME280;63326;45.088;7.658;2024-03-08T00:20:33;98613.78;;;3.60;100.00
74798;BME280;63326;45.088;7.658;2024-03-08T00:23:00;98576.97;;;3.28;100.00
74798;BME280;63326;45.088;7.658;2024-03-08T00:25:27;98597.91;;;3.41;100.00
74798;BME280;63326;45.088;7.658;2024-03-08T00:27:56;98611.19;;;3.31;100.00
74798;BME280;63326;45.088;7.658;2024-03-08T00:30:28;98624.50;;;3.22;100.00
74798;BME280;63326;45.088;7.658;2024-03-08T00:32:55;98615.53;;;3.23;100.00
74798;BME280;63326;45.088;7.658;2024-03-08T00:35:23;98614.13;;;3.28;100.00
74798;BME280;63326;45.088;7.658;2024-03-08T00:37:51;98593.94;;;2.98;100.00
74798;BME280;63326;45.088;7.658;2024-03-08T00:40:19;98590.56;;;3.16;100.00
74798;BME280;63326;45.088;7.658;2024-03-08T00:42:47;98615.94;;;3.28;100.00
74798;BME280;63326;45.088;7.658;2024-03-08T00:45:17;98609.25;;;3.24;100.00
74798;BME280;63326;45.088;7.658;2024-03-08T00:47:44;98602.84;;;3.17;100.00
74798;BME280;63326;45.088;7.658;2024-03-08T00:50:15;98619.59;;;3.17;100.00
74798;BME280;63326;45.088;7.658;2024-03-08T00:52:45;98612.06;;;3.22;100.00
74798;BME280;63326;45.088;7.658;2024-03-08T00:55:14;98589.31;;;3.10;100.00
74798;BME280;63326;45.088;7.658;2024-03-08T00:57:46;98588.50;;;3.00;100.00
74798;BME280;63326;45.088;7.658;2024-03-08T01:00:17;98579.59;;;2.91;100.00
74798;BME280;63326;45.088;7.658;2024-03-08T01:02:47;98603.16;;;2.94;100.00
74798;BME280;63326;45.088;7.658;2024-03-08T01:05:15;98600.38;;;2.86;100.00
74798;BME280;63326;45.088;7.658;2024-03-08T01:07:46;98608.91;;;2.80;100.00
74798;BME280;63326;45.088;7.658;2024-03-08T01:10:13;98590.75;;;2.56;100.00
74798;BME280;63326;45.088;7.658;2024-03-08T01:12:40;98603.47;;;2.62;100.00
74798;BME280;63326;45.088;7.658;2024-03-08T01:15:12;98566.63;;;2.40;100.00
74798;BME280;63326;45.088;7.658;2024-03-08T01:17:40;98609.75;;;2.52;100.00
74798;BME280;63326;45.088;7.658;2024-03-08T01:20:08;98597.47;;;2.41;100.00
74798;BME280;63326;45.088;7.658;2024-03-08T01:22:38;98601.34;;;2.46;100.00
74798;BME280;63326;45.088;7.658;2024-03-08T01:25:06;98609.28;;;2.37;100.00
74798;BME280;63326;45.088;7.658;2024-03-08T01:27:36;98578.19;;;2.20;100.00
74798;BME280;63326;45.088;7.658;2024-03-08T01:30:06;98611.41;;;2.43;100.00
74798;BME280;63326;45.088;7.658;2024-03-08T01:32:33;98591.03;;;2.43;100.00
74798;BME280;63326;45.088;7.658;2024-03-08T01:35:01;98587.41;;;2.44;100.00
74798;BME280;63326;45.088;7.658;2024-03-08T01:37:31;98598.31;;;2.51;100.00
74798;BME280;63326;45.088;7.658;2024-03-08T01:39:59;98580.16;;;2.46;100.00
74798;BME280;63326;45.088;7.658;2024-03-08T01:42:30;98580.59;;;2.52;100.00
74798;BME280;63326;45.088;7.658;2024-03-08T01:44:59;98588.94;;;2.66;100.00
74798;BME280;63326;45.088;7.658;2024-03-08T01:47:27;98584.34;;;2.78;100.00
74798;BME280;63326;45.088;7.658;2024-03-08T01:50:02;98576.50;;;2.86;100.00
74798;BME280;63326;45.088;7.658;2024-03-08T01:52:34;98553.25;;;2.61;100.00
74798;BME280;63326;45.088;7.658;2024-03-08T01:55:02;98572.63;;;2.81;100.00
74798;BME280;63326;45.088;7.658;2024-03-08T01:57:34;98568.69;;;2.85;100.00
74798;BME280;63326;45.088;7.658;2024-03-08T02:00:02;98566.47;;;2.90;100.00
74798;BME280;63326;45.088;7.658;2024-03-08T02:02:36;98550.41;;;2.91;100.00
74798;BME280;63326;45.088;7.658;2024-03-08T02:05:04;98544.81;;;2.85;100.00
74798;BME280;63326;45.088;7.658;2024-03-08T02:07:32;98556.38;;;3.03;100.00
74798;BME280;63326;45.088;7.658;2024-03-08T02:10:01;98548.78;;;3.18;100.00
74798;BME280;63326;45.088;7.658;2024-03-08T02:12:31;98541.66;;;3.18;100.00
74798;BME280;63326;45.088;7.658;2024-03-08T02:14:58;98546.22;;;3.36;100.00
74798;BME280;63326;45.088;7.658;2024-03-08T02:17:33;98543.22;;;3.48;100.00
74798;BME280;63326;45.088;7.658;2024-03-08T02:20:02;98535.50;;;3.27;100.00
74798;BME280;63326;45.088;7.658;2024-03-08T02:22:31;98559.09;;;3.30;100.00
74798;BME280;63326;45.088;7.658;2024-03-08T02:25:04;98545.72;;;3.22;100.00
74798;BME280;63326;45.088;7.658;2024-03-08T02:27:31;98562.97;;;3.36;100.00
74798;BME280;63326;45.088;7.658;2024-03-08T02:30:01;98535.34;;;3.29;100.00
74798;BME280;63326;45.088;7.658;2024-03-08T02:32:29;98506.34;;;3.18;100.00
74798;BME280;63326;45.088;7.658;2024-03-08T02:34:57;98528.31;;;3.38;100.00
74798;BME280;63326;45.088;7.658;2024-03-08T02:37:27;98546.34;;;3.44;100.00
74798;BME280;63326;45.088;7.658;2024-03-08T02:39:56;98543.78;;;3.52;100.00
74798;BME280;63326;45.088;7.658;2024-03-08T02:42:24;98550.91;;;3.51;100.00
74798;BME280;63326;45.088;7.658;2024-03-08T02:44:54;98547.44;;;3.51;100.00
74798;BME280;63326;45.088;7.658;2024-03-08T02:47:25;98531.47;;;3.60;100.00
74798;BME280;63326;45.088;7.658;2024-03-08T02:49:56;98484.19;;;3.37;100.00
74798;BME280;63326;45.088;7.658;2024-03-08T02:52:24;98546.69;;;3.86;100.00
74798;BME280;63326;45.088;7.658;2024-03-08T02:54:55;98523.13;;;3.73;100.00
74798;BME280;63326;45.088;7.658;2024-03-08T02:57:25;98547.91;;;3.91;100.00
74798;BME280;63326;45.088;7.658;2024-03-08T02:59:54;98497.22;;;3.57;100.00
74798;BME280;63326;45.088;7.658;2024-03-08T03:02:33;98536.78;;;3.78;100.00
74798;BME280;63326;45.088;7.658;2024-03-08T03:05:01;98528.66;;;3.62;100.00
74798;BME280;63326;45.088;7.658;2024-03-08T03:07:44;98529.63;;;3.61;100.00
74798;BME280;63326;45.088;7.658;2024-03-08T03:10:11;98546.78;;;3.67;100.00
74798;BME280;63326;45.088;7.658;2024-03-08T03:12:40;98534.22;;;3.59;100.00
74798;BME280;63326;45.088;7.658;2024-03-08T03:15:14;98534.78;;;3.62;100.00
74798;BME280;63326;45.088;7.658;2024-03-08T03:17:46;98519.13;;;3.59;100.00
74798;BME280;63326;45.088;7.658;2024-03-08T03:20:14;98486.13;;;3.44;100.00
74798;BME280;63326;45.088;7.658;2024-03-08T03:22:49;98547.66;;;3.85;100.00
74798;BME280;63326;45.088;7.658;2024-03-08T03:25:21;98540.31;;;3.97;100.00
74798;BME280;63326;45.088;7.658;2024-03-08T03:27:55;98530.63;;;4.05;100.00
74798;BME280;63326;45.088;7.658;2024-03-08T03:30:24;98534.56;;;4.19;100.00
74798;BME280;63326;45.088;7.658;2024-03-08T03:32:54;98541.56;;;4.20;100.00
74798;BME280;63326;45.088;7.658;2024-03-08T03:35:25;98537.00;;;4.12;100.00
74798;BME280;63326;45.088;7.658;2024-03-08T03:37:53;98503.97;;;3.97;100.00
74798;BME280;63326;45.088;7.658;2024-03-08T03:40:37;98540.66;;;4.47;100.00
74798;BME280;63326;45.088;7.658;2024-03-08T03:43:05;98540.72;;;4.55;100.00
74798;BME280;63326;45.088;7.658;2024-03-08T03:45:35;98535.94;;;4.59;100.00
74798;BME280;63326;45.088;7.658;2024-03-08T03:48:07;98540.00;;;4.71;100.00
74798;BME280;63326;45.088;7.658;2024-03-08T03:50:36;98544.41;;;4.80;100.00
74798;BME280;63326;45.088;7.658;2024-03-08T03:53:04;98545.22;;;4.72;100.00
74798;BME280;63326;45.088;7.658;2024-03-08T03:55:34;98546.03;;;4.73;100.00
74798;BME280;63326;45.088;7.658;2024-03-08T03:58:04;98554.22;;;4.79;100.00
74798;BME280;63326;45.088;7.658;2024-03-08T04:00:30;98548.69;;;4.91;100.00
74798;BME280;63326;45.088;7.658;2024-03-08T04:02:57;98542.75;;;4.79;100.00
74798;BME280;63326;45.088;7.658;2024-03-08T04:05:28;98562.13;;;4.89;100.00
74798;BME280;63326;45.088;7.658;2024-03-08T04:07:57;98522.13;;;4.55;100.00
74798;BME280;63326;45.088;7.658;2024-03-08T04:10:25;98565.41;;;4.83;100.00
74798;BME280;63326;45.088;7.658;2024-03-08T04:12:55;98564.88;;;4.79;100.00
74798;BME280;63326;45.088;7.658;2024-03-08T04:15:27;98561.06;;;4.82;100.00
74798;BME280;63326;45.088;7.658;2024-03-08T04:17:56;98555.53;;;4.93;100.00
74798;BME280;63326;45.088;7.658;2024-03-08T04:20:25;98558.56;;;4.98;100.00
74798;BME280;63326;45.088;7.658;2024-03-08T04:22:53;98557.22;;;4.94;100.00
74798;BME280;63326;45.088;7.658;2024-03-08T04:25:22;98553.47;;;4.87;100.00
74798;BME280;63326;45.088;7.658;2024-03-08T04:27:51;98558.03;;;4.95;100.00
74798;BME280;63326;45.088;7.658;2024-03-08T04:30:21;98564.19;;;4.95;100.00
74798;BME280;63326;45.088;7.658;2024-03-08T04:32:48;98562.28;;;4.88;100.00
74798;BME280;63326;45.088;7.658;2024-03-08T04:35:20;98541.41;;;4.75;100.00
74798;BME280;63326;45.088;7.658;2024-03-08T04:37:47;98558.22;;;4.93;100.00
74798;BME280;63326;45.088;7.658;2024-03-08T04:40:15;98556.50;;;4.92;100.00
74798;BME280;63326;45.088;7.658;2024-03-08T04:42:43;98560.44;;;4.88;100.00
74798;BME280;63326;45.088;7.658;2024-03-08T04:45:14;98557.72;;;4.80;100.00
74798;BME280;63326;45.088;7.658;2024-03-08T04:47:41;98550.72;;;4.79;100.00
74798;BME280;63326;45.088;7.658;2024-03-08T04:50:11;98538.66;;;4.67;100.00
74798;BME280;63326;45.088;7.658;2024-03-08T04:52:38;98510.09;;;4.51;100.00
74798;BME280;63326;45.088;7.658;2024-03-08T04:55:05;98550.06;;;4.77;100.00
74798;BME280;63326;45.088;7.658;2024-03-08T04:57:36;98544.00;;;4.67;100.00
74798;BME280;63326;45.088;7.658;2024-03-08T05:00:07;98550.53;;;4.72;100.00
74798;BME280;63326;45.088;7.658;2024-03-08T05:02:38;98553.94;;;4.65;100.00
74798;BME280;63326;45.088;7.658;2024-03-08T05:05:08;98554.47;;;4.68;100.00
74798;BME280;63326;45.088;7.658;2024-03-08T05:07:44;98529.78;;;4.58;100.00
74798;BME280;63326;45.088;7.658;2024-03-08T05:10:13;98551.97;;;4.67;100.00
74798;BME280;63326;45.088;7.658;2024-03-08T05:12:45;98553.03;;;4.56;100.00
74798;BME280;63326;45.088;7.658;2024-03-08T05:15:14;98563.91;;;4.63;100.00
74798;BME280;63326;45.088;7.658;2024-03-08T05:17:41;98553.63;;;4.50;100.00
74798;BME280;63326;45.088;7.658;2024-03-08T05:20:11;98544.31;;;4.46;100.00
74798;BME280;63326;45.088;7.658;2024-03-08T05:22:40;98530.09;;;4.37;100.00
74798;BME280;63326;45.088;7.658;2024-03-08T05:25:08;98564.50;;;4.57;100.00
74798;BME280;63326;45.088;7.658;2024-03-08T05:27:35;98513.78;;;4.32;100.00
74798;BME280;63326;45.088;7.658;2024-03-08T05:30:05;98557.84;;;4.53;100.00
74798;BME280;63326;45.088;7.658;2024-03-08T05:32:32;98554.44;;;4.42;100.00
74798;BME280;63326;45.088;7.658;2024-03-08T05:35:00;98556.59;;;4.47;100.00
74798;BME280;63326;45.088;7.658;2024-03-08T05:37:28;98504.97;;;4.14;100.00
74798;BME280;63326;45.088;7.658;2024-03-08T05:39:58;98548.41;;;4.40;100.00
74798;BME280;63326;45.088;7.658;2024-03-08T05:42:24;98551.75;;;4.25;100.00
74798;BME280;63326;45.088;7.658;2024-03-08T05:44:51;98542.38;;;4.20;100.00
74798;BME280;63326;45.088;7.658;2024-03-08T05:47:20;98529.78;;;4.05;100.00
74798;BME280;63326;45.088;7.658;2024-03-08T05:49:47;98553.66;;;4.32;100.00
74798;BME280;63326;45.088;7.658;2024-03-08T05:52:15;98552.06;;;4.22;100.00
74798;BME280;63326;45.088;7.658;2024-03-08T05:54:43;98564.28;;;4.14;100.00
74798;BME280;63326;45.088;7.658;2024-03-08T05:57:14;98561.38;;;4.08;100.00
74798;BME280;63326;45.088;7.658;2024-03-08T05:59:44;98559.53;;;4.08;100.00
74798;BME280;63326;45.088;7.658;2024-03-08T06:02:11;98567.34;;;4.10;100.00
74798;BME280;63326;45.088;7.658;2024-03-08T06:04:40;98571.84;;;4.09;100.00
74798;BME280;63326;45.088;7.658;2024-03-08T06:07:11;98577.41;;;4.16;100.00
74798;BME280;63326;45.088;7.658;2024-03-08T06:09:39;98562.97;;;4.01;100.00
74798;BME280;63326;45.088;7.658;2024-03-08T06:12:07;98555.22;;;4.07;100.00
74798;BME280;63326;45.088;7.658;2024-03-08T06:14:37;98525.38;;;3.96;100.00
74798;BME280;63326;45.088;7.658;2024-03-08T06:17:06;98557.44;;;4.12;100.00
74798;BME280;63326;45.088;7.658;2024-03-08T06:19:36;98584.84;;;4.30;100.00
74798;BME280;63326;45.088;7.658;2024-03-08T06:22:04;98586.91;;;4.36;100.00
74798;BME280;63326;45.088;7.658;2024-03-08T06:24:33;98568.53;;;4.25;100.00
74798;BME280;63326;45.088;7.658;2024-03-08T06:27:04;98573.94;;;4.33;100.00
74798;BME280;63326;45.088;7.658;2024-03-08T06:29:30;98597.19;;;4.49;100.00
74798;BME280;63326;45.088;7.658;2024-03-08T06:31:59;98578.13;;;4.54;100.00
74798;BME280;63326;45.088;7.658;2024-03-08T06:34:27;98569.75;;;4.48;100.00
74798;BME280;63326;45.088;7.658;2024-03-08T06:36:56;98586.63;;;4.57;100.00
74798;BME280;63326;45.088;7.658;2024-03-08T06:39:27;98591.19;;;4.65;100.00
74798;BME280;63326;45.088;7.658;2024-03-08T06:41:58;98602.81;;;4.64;100.00
74798;BME280;63326;45.088;7.658;2024-03-08T06:44:27;98591.34;;;4.45;100.00
74798;BME280;63326;45.088;7.658;2024-03-08T06:46:55;98605.00;;;4.50;100.00
74798;BME280;63326;45.088;7.658;2024-03-08T06:49:26;98613.91;;;4.59;100.00
74798;BME280;63326;45.088;7.658;2024-03-08T06:51:53;98613.75;;;4.78;100.00
74798;BME280;63326;45.088;7.658;2024-03-08T06:54:23;98612.16;;;4.86;100.00
74798;BME280;63326;45.088;7.658;2024-03-08T06:56:51;98610.28;;;4.96;100.00
74798;BME280;63326;45.088;7.658;2024-03-08T06:59:22;98575.59;;;4.70;100.00
74798;BME280;63326;45.088;7.658;2024-03-08T07:01:49;98572.50;;;4.57;100.00
74798;BME280;63326;45.088;7.658;2024-03-08T07:04:18;98613.25;;;4.93;100.00
74798;BME280;63326;45.088;7.658;2024-03-08T07:06:47;98614.09;;;4.93;100.00
74798;BME280;63326;45.088;7.658;2024-03-08T07:09:17;98614.13;;;5.01;100.00
74798;BME280;63326;45.088;7.658;2024-03-08T07:11:44;98598.88;;;5.03;100.00
74798;BME280;63326;45.088;7.658;2024-03-08T07:14:15;98605.75;;;5.14;100.00
74798;BME280;63326;45.088;7.658;2024-03-08T07:16:43;98612.66;;;5.25;100.00
74798;BME280;63326;45.088;7.658;2024-03-08T07:19:14;98622.50;;;5.32;100.00
74798;BME280;63326;45.088;7.658;2024-03-08T07:21:45;98601.81;;;5.52;100.00
74798;BME280;63326;45.088;7.658;2024-03-08T07:24:15;98625.41;;;5.65;100.00
74798;BME280;63326;45.088;7.658;2024-03-08T07:27:06;98623.47;;;5.49;100.00
74798;BME280;63326;45.088;7.658;2024-03-08T07:29:34;98623.41;;;5.41;100.00
74798;BME280;63326;45.088;7.658;2024-03-08T07:32:04;98606.94;;;5.72;100.00
74798;BME280;63326;45.088;7.658;2024-03-08T07:34:50;98628.44;;;6.12;100.00
74798;BME280;63326;45.088;7.658;2024-03-08T07:37:17;98624.84;;;6.30;100.00
74798;BME280;63326;45.088;7.658;2024-03-08T07:39:46;98614.81;;;6.15;100.00
74798;BME280;63326;45.088;7.658;2024-03-08T07:42:14;98629.13;;;6.97;95.80
74798;BME280;63326;45.088;7.658;2024-03-08T07:44:43;98588.56;;;7.51;91.66
74798;BME280;63326;45.088;7.658;2024-03-08T07:47:10;98590.84;;;7.70;87.34
74798;BME280;63326;45.088;7.658;2024-03-08T07:49:37;98621.28;;;7.53;90.13
74798;BME280;63326;45.088;7.658;2024-03-08T07:52:05;98627.75;;;7.66;89.55
74798;BME280;63326;45.088;7.658;2024-03-08T07:54:34;98630.06;;;7.78;88.48
74798;BME280;63326;45.088;7.658;2024-03-08T07:57:03;98631.97;;;7.45;89.91
74798;BME280;63326;45.088;7.658;2024-03-08T07:59:31;98630.66;;;7.41;90.40
74798;BME280;63326;45.088;7.658;2024-03-08T08:02:00;98637.47;;;7.43;90.39
74798;BME280;63326;45.088;7.658;2024-03-08T08:04:27;98585.91;;;6.69;93.05
74798;BME280;63326;45.088;7.658;2024-03-08T08:07:00;98580.56;;;6.69;93.42
74798;BME280;63326;45.088;7.658;2024-03-08T08:09:27;98627.44;;;6.96;94.09
74798;BME280;63326;45.088;7.658;2024-03-08T08:12:02;98619.28;;;6.15;99.31
74798;BME280;63326;45.088;7.658;2024-03-08T08:14:30;98648.63;;;6.23;100.00
74798;BME280;63326;45.088;7.658;2024-03-08T08:16:58;98605.25;;;5.71;100.00
74798;BME280;63326;45.088;7.658;2024-03-08T08:19:28;98655.00;;;5.88;100.00
74798;BME280;63326;45.088;7.658;2024-03-08T08:21:56;98650.94;;;5.76;100.00
74798;BME280;63326;45.088;7.658;2024-03-08T08:24:25;98626.06;;;5.67;100.00
74798;BME280;63326;45.088;7.658;2024-03-08T08:27:00;98643.25;;;5.73;100.00
74798;BME280;63326;45.088;7.658;2024-03-08T08:29:27;98632.41;;;5.74;100.00
74798;BME280;63326;45.088;7.658;2024-03-08T08:31:54;98636.00;;;5.91;100.00
74798;BME280;63326;45.088;7.658;2024-03-08T08:34:23;98633.47;;;5.81;100.00
74798;BME280;63326;45.088;7.658;2024-03-08T08:36:53;98635.84;;;5.92;100.00
74798;BME280;63326;45.088;7.658;2024-03-08T08:39:21;98646.16;;;6.30;100.00
74798;BME280;63326;45.088;7.658;2024-03-08T08:41:49;98640.53;;;6.41;100.00
74798;BME280;63326;45.088;7.658;2024-03-08T08:44:20;98605.16;;;6.31;100.00
74798;BME280;63326;45.088;7.658;2024-03-08T08:46:48;98644.63;;;6.77;100.00
74798;BME280;63326;45.088;7.658;2024-03-08T08:49:19;98650.09;;;6.60;100.00
74798;BME280;63326;45.088;7.658;2024-03-08T08:51:50;98655.38;;;6.43;100.00
74798;BME280;63326;45.088;7.658;2024-03-08T08:54:20;98638.47;;;6.77;100.00
74798;BME280;63326;45.088;7.658;2024-03-08T08:56:49;98645.97;;;7.14;99.21
74798;BME280;63326;45.088;7.658;2024-03-08T08:59:17;98590.56;;;7.16;96.85
74798;BME280;63326;45.088;7.658;2024-03-08T09:02:07;98631.56;;;7.80;93.95
74798;BME280;63326;45.088;7.658;2024-03-08T09:04:45;98637.81;;;8.12;92.30
74798;BME280;63326;45.088;7.658;2024-03-08T09:07:12;98640.69;;;8.02;93.03
74798;BME280;63326;45.088;7.658;2024-03-08T09:09:42;98618.66;;;8.31;90.65
74798;BME280;63326;45.088;7.658;2024-03-08T09:12:11;98591.38;;;8.05;90.57
74798;BME280;63326;45.088;7.658;2024-03-08T09:14:41;98621.66;;;8.28;90.15
74798;BME280;63326;45.088;7.658;2024-03-08T09:17:09;98620.38;;;8.55;89.40
74798;BME280;63326;45.088;7.658;2024-03-08T09:19:36;98618.06;;;8.52;89.96
74798;BME280;63326;45.088;7.658;2024-03-08T09:22:04;98627.78;;;8.06;90.83
74798;BME280;63326;45.088;7.658;2024-03-08T09:24:32;98629.16;;;8.02;94.84
74798;BME280;63326;45.088;7.658;2024-03-08T09:27:02;98622.63;;;7.49;96.67
74798;BME280;63326;45.088;7.658;2024-03-08T09:29:34;98636.97;;;6.99;100.00
74798;BME280;63326;45.088;7.658;2024-03-08T09:32:04;98643.31;;;6.90;100.00
74798;BME280;63326;45.088;7.658;2024-03-08T09:34:36;98622.78;;;6.90;100.00
74798;BME280;63326;45.088;7.658;2024-03-08T09:37:04;98605.25;;;7.45;100.00
74798;BME280;63326;45.088;7.658;2024-03-08T09:39:32;98630.00;;;7.94;98.37
74798;BME280;63326;45.088;7.658;2024-03-08T09:42:01;98635.47;;;7.29;100.00
74798;BME280;63326;45.088;7.658;2024-03-08T09:44:36;98632.78;;;7.70;100.00
74798;BME280;63326;45.088;7.658;2024-03-08T09:47:03;98621.94;;;8.10;96.09
74798;BME280;63326;45.088;7.658;2024-03-08T09:49:34;98580.72;;;7.88;95.71
74798;BME280;63326;45.088;7.658;2024-03-08T09:52:05;98617.03;;;8.22;94.30
74798;BME280;63326;45.088;7.658;2024-03-08T09:54:31;98609.69;;;8.16;93.88
74798;BME280;63326;45.088;7.658;2024-03-08T09:57:00;98614.00;;;8.25;94.03
74798;BME280;63326;45.088;7.658;2024-03-08T09:59:30;98616.59;;;8.10;95.39
74798;BME280;63326;45.088;7.658;2024-03-08T10:02:14;98638.97;;;7.46;99.50
74798;BME280;63326;45.088;7.658;2024-03-08T10:04:55;98612.59;;;7.51;100.00
74798;BME280;63326;45.088;7.658;2024-03-08T10:07:24;98648.50;;;7.48;100.00
74798;BME280;63326;45.088;7.658;2024-03-08T10:09:59;98644.66;;;7.51;100.00
74798;BME280;63326;45.088;7.658;2024-03-08T10:12:27;98636.66;;;7.18;100.00
74798;BME280;63326;45.088;7.658;2024-03-08T10:14:58;98638.28;;;6.87;100.00
74798;BME280;63326;45.088;7.658;2024-03-08T10:17:27;98645.66;;;7.01;100.00
74798;BME280;63326;45.088;7.658;2024-03-08T10:20:01;98634.81;;;7.43;100.00
74798;BME280;63326;45.088;7.658;2024-03-08T10:22:42;98624.44;;;7.24;100.00
74798;BME280;63326;45.088;7.658;2024-03-08T10:25:28;98635.47;;;7.04;100.00
74798;BME280;63326;45.088;7.658;2024-03-08T10:28:04;98627.59;;;6.95;100.00
74798;BME280;63326;45.088;7.658;2024-03-08T10:30:33;98629.97;;;6.98;100.00
74798;BME280;63326;45.088;7.658;2024-03-08T10:33:00;98602.09;;;7.00;100.00
74798;BME280;63326;45.088;7.658;2024-03-08T10:35:29;98627.47;;;7.37;100.00
74798;BME280;63326;45.088;7.658;2024-03-08T10:37:56;98625.28;;;7.00;100.00
74798;BME280;63326;45.088;7.658;2024-03-08T10:40:31;98623.59;;;6.58;100.00
74798;BME280;63326;45.088;7.658;2024-03-08T10:43:03;98620.97;;;6.24;100.00
74798;BME280;63326;45.088;7.658;2024-03-08T10:45:38;98622.81;;;6.23;100.00
74798;BME280;63326;45.088;7.658;2024-03-08T10:48:26;98617.31;;;6.17;100.00
74798;BME280;63326;45.088;7.658;2024-03-08T10:51:06;98607.66;;;6.32;100.00
74798;BME280;63326;45.088;7.658;2024-03-08T10:53:37;98614.56;;;6.75;100.00
74798;BME280;63326;45.088;7.658;2024-03-08T10:56:10;98609.59;;;7.05;100.00
74798;BME280;63326;45.088;7.658;2024-03-08T10:58:40;98562.38;;;6.65;100.00
74798;BME280;63326;45.088;7.658;2024-03-08T11:01:09;98602.59;;;7.20;100.00
74798;BME280;63326;45.088;7.658;2024-03-08T11:09:30;98625.28;;;7.24;100.00
74798;BME280;63326;45.088;7.658;2024-03-08T11:12:25;98622.47;;;7.42;100.00
74798;BME280;63326;45.088;7.658;2024-03-08T11:14:59;98632.97;;;7.60;100.00
74798;BME280;63326;45.088;7.658;2024-03-08T11:17:44;98623.94;;;7.36;100.00
74798;BME280;63326;45.088;7.658;2024-03-08T11:20:17;98628.16;;;7.39;100.00
74798;BME280;63326;45.088;7.658;2024-03-08T11:22:59;98628.94;;;7.23;100.00
74798;BME280;63326;45.088;7.658;2024-03-08T11:25:38;98628.97;;;6.91;100.00
74798;BME280;63326;45.088;7.658;2024-03-08T11:28:23;98612.59;;;6.69;100.00
74798;BME280;63326;45.088;7.658;2024-03-08T11:33:31;98595.88;;;6.51;100.00
74798;BME280;63326;45.088;7.658;2024-03-08T11:36:10;98563.47;;;6.21;100.00
74798;BME280;63326;45.088;7.658;2024-03-08T11:38:45;98569.44;;;6.07;100.00
74798;BME280;63326;45.088;7.658;2024-03-08T11:41:20;98622.75;;;6.58;100.00
74798;BME280;63326;45.088;7.658;2024-03-08T11:43:49;98529.06;;;5.94;100.00
74798;BME280;63326;45.088;7.658;2024-03-08T11:46:17;98608.72;;;6.64;100.00
74798;BME280;63326;45.088;7.658;2024-03-08T11:48:46;98605.75;;;6.67;100.00
74798;BME280;63326;45.088;7.658;2024-03-08T11:51:15;98513.13;;;6.10;100.00
74798;BME280;63326;45.088;7.658;2024-03-08T11:53:45;98457.47;;;5.99;100.00
74798;BME280;63326;45.088;7.658;2024-03-08T11:56:14;98586.75;;;6.78;100.00
74798;BME280;63326;45.088;7.658;2024-03-08T11:58:56;98527.69;;;6.48;100.00
74798;BME280;63326;45.088;7.658;2024-03-08T12:01:31;98577.91;;;6.94;100.00
74798;BME280;63326;45.088;7.658;2024-03-08T12:23:47;98518.03;;;6.80;100.00
74798;BME280;63326;45.088;7.658;2024-03-08T12:26:24;98556.38;;;6.79;100.00
74798;BME280;63326;45.088;7.658;2024-03-08T12:29:09;98554.69;;;7.02;100.00
74798;BME280;63326;45.088;7.658;2024-03-08T12:31:42;98543.72;;;6.81;100.00
74798;BME280;63326;45.088;7.658;2024-03-08T12:34:11;98540.84;;;6.74;100.00
74798;BME280;63326;45.088;7.658;2024-03-08T12:36:43;98517.50;;;6.44;100.00
74798;BME280;63326;45.088;7.658;2024-03-08T12:39:10;98531.66;;;6.20;100.00
74798;BME280;63326;45.088;7.658;2024-03-08T12:41:44;98547.34;;;6.39;100.00
74798;BME280;63326;45.088;7.658;2024-03-08T12:44:14;98508.50;;;6.29;100.00
74798;BME280;63326;45.088;7.658;2024-03-08T12:46:49;98525.50;;;6.52;100.00
74798;BME280;63326;45.088;7.658;2024-03-08T12:49:19;98524.19;;;6.56;100.00
74798;BME280;63326;45.088;7.658;2024-03-08T12:51:52;98526.69;;;6.82;100.00
74798;BME280;63326;45.088;7.658;2024-03-08T12:54:22;98514.03;;;6.60;100.00
74798;BME280;63326;45.088;7.658;2024-03-08T12:56:55;98476.66;;;6.19;100.00
74798;BME280;63326;45.088;7.658;2024-03-08T12:59:28;98499.16;;;6.33;100.00
74798;BME280;63326;45.088;7.658;2024-03-08T13:01:55;98502.00;;;6.31;100.00
74798;BME280;63326;45.088;7.658;2024-03-08T13:04:26;98506.00;;;6.35;100.00
74798;BME280;63326;45.088;7.658;2024-03-08T13:06:54;98460.97;;;6.08;100.00
74798;BME280;63326;45.088;7.658;2024-03-08T13:09:23;98492.31;;;6.22;100.00
74798;BME280;63326;45.088;7.658;2024-03-08T13:11:54;98476.50;;;6.29;100.00
74798;BME280;63326;45.088;7.658;2024-03-08T13:14:26;98450.19;;;6.26;100.00
74798;BME280;63326;45.088;7.658;2024-03-08T13:16:55;98504.84;;;6.30;100.00
74798;BME280;63326;45.088;7.658;2024-03-08T13:19:27;98494.16;;;6.30;100.00
74798;BME280;63326;45.088;7.658;2024-03-08T13:21:55;98493.31;;;6.21;100.00
74798;BME280;63326;45.088;7.658;2024-03-08T13:24:26;98495.50;;;6.26;100.00
74798;BME280;63326;45.088;7.658;2024-03-08T13:26:53;98484.00;;;6.33;100.00
74798;BME280;63326;45.088;7.658;2024-03-08T13:29:24;98424.13;;;6.03;100.00
74798;BME280;63326;45.088;7.658;2024-03-08T13:31:52;98480.31;;;6.18;100.00
74798;BME280;63326;45.088;7.658;2024-03-08T13:34:24;98457.00;;;6.20;100.00
74798;BME280;63326;45.088;7.658;2024-03-08T13:37:04;98429.34;;;6.29;100.00
74798;BME280;63326;45.088;7.658;2024-03-08T13:39:36;98471.66;;;6.32;100.00
74798;BME280;63326;45.088;7.658;2024-03-08T13:42:11;98471.66;;;6.24;100.00
74798;BME280;63326;45.088;7.658;2024-03-08T13:44:43;98444.16;;;6.23;100.00
74798;BME280;63326;45.088;7.658;2024-03-08T13:47:13;98469.16;;;6.55;100.00